Lewistown, MT

11:47 PM MST on February 09, 2016 (GMT -0700)
3rd Ave S Lewistown | | Change Station
CLOSE
Current Station
Personal Weather Station
Location: Lewistown, MT
Elevation: 3927 ft
Nearby Weather Stations

Elev 3927 ft 47.06 °N, 109.42 °W | Updated 35 minutes ago

Partly Cloudy
Partly Cloudy
33.3 °F
Feels Like 33 °F
N
0.0
Wind Variable Wind from South
Gusts 3.0 mph

Today
High -- | Low -- °F
--% Chance of Precip.
Yesterday
High -- | Low -- °F
Precip. -- in
Pressure 30.08 in
Visibility 10.0 miles
Clouds Clear
Windchill 33 °F
Dew Point 27 °F
Humidity 76%
Rainfall 0.00 in
Snow Depth Not available.
7:31 AM 5:31 PM
Waxing Crescent, 4% visible
METAR KLWT 100554Z AUTO 23011KT 10SM CLR 05/M04 A3007 RMK AO2 SLP186 T00501044 10106 20044 58009
Pressure 30.08 in
Visibility 10.0 miles
Clouds Clear
Windchill 33 °F
Dew Point 27 °F
Humidity 76%
Rainfall 0.00 in
Snow Depth Not available.
7:31 AM 5:31 PM
Waxing Crescent, 4% visible
METAR KLWT 100554Z AUTO 23011KT 10SM CLR 05/M04 A3007 RMK AO2 SLP186 T00501044 10106 20044 58009

10-Day Weather Forecast

Almanac

Astronomy

Feb. 09, 2016 Rise Set
Actual Time
Civil Twilight
Nautical Twilight
Astronomical Twilight
Moon
Length of Visible Light
Length of Day
Tomorrow will be .
, % of the Moon is Illuminated

Today's Extremes

State Highs State Lows

Community

WunderPhotos

Upload Photos

1,891,826 photos uploaded!

WunderBlog® & News

Nearby

Air Quality

  Air Quality AQ Index Pollutant
Not available.

Snow Depth

Station Depth Elevation

Earthquake Activity

City Distance Mag. Time & Date
Minimum magnitude displayed is 2.5.

Coastal Water Temperatures

Place Temperature

Stations

Nearby Weather Stations

Station Location Temp. Windchill Dew Point Humidity Wind Precip. Elev Updated Type
                   

Watches & Warnings

There are currently no watches in effect.